Aéroport int. Stanfield de Halifax, Nouvelle Écosse

Conditions des dernières 24 heures

Ce tableau est un sommaire des conditions météo couvrant les dernières 24 heures. Ce sommaire inclut les paramètres suivants: température, humidité, point de rosée, direction et vitesse du vent, pression barométrique, facteur de refroidissement éolien ou indice humidex.
Date / Heure
(HAA)
Conditions Temp (°C) Humidite (%) Point de rose (°C) Vent (km/h) Pression (kPa) Visibilité (km)
16 avril 2014
7:00 Brume 12 97 11 S 39 rafale 61 100,8 2
6:00 Brume 12 96 11 S 43 rafale 61 100,9 3
5:00 Brume 13 95 12 S 46 rafale 63 100,9 5
4:00 Brume 13 95 12 S 37 rafale 59 101,0 5
3:00 Faible averse de pluie 13 95 13 SSO 41 rafale 63 101,1 8
2:00 Faible averse de pluie 14 96 13 SSO 43 rafale 67 101,1 5
1:00 Averse de pluie 14 97 13 SSO 40 rafale 59 101,2 5
0:00 Faible averse de pluie 13 97 12 S 37 rafale 58 101,3 3
15 avril 2014
23:00 Brume 14 96 13 SSO 32 rafale 60 101,4 6
22:00 Faible averse de pluie 14 95 13 S 45 rafale 59 101,4 10
21:00 Brume 14 95 13 S 24 rafale 52 101,5 10
20:00 Brume 13 97 12 S 23 101,5 10
19:00 Faible averse de pluie 13 96 13 S 29 rafale 40 101,5 13
18:00 Nuageux 15 87 13 SSO 35 rafale 49 101,6 24
17:00 Généralement nuageux 18   69 12 SSO 39 rafale 58 101,5 24
16:00 Nuageux 18   67 12 SSO 36 rafale 58 101,6 24
15:00 Nuageux 18   65 12 SSO 45 rafale 66 101,7 24
14:00 Généralement nuageux 18   63 11 SSO 44 rafale 63 101,7 24
13:00 Généralement nuageux 17 65 11 SO 47 rafale 64 101,8 24
12:00 Généralement nuageux 15 80 12 SSO 39 rafale 55 101,8 24
11:00 Généralement nuageux 14 88 12 SSO 32 rafale 53 101,9 24
10:00 Généralement nuageux 14 84 11 SSO 27 rafale 42 102,0 24
9:00 Nuageux 11 94 10 SSO 20 rafale 34 102,0 16
8:00 Nuageux 11 95 10 S 19 102,0 16
7:00 Généralement nuageux 10   97 10 SSO 21 rafale 30 101,9 19
N.D.
non disponible
 ↑ 
température la plus haute
 ↓ 
température la plus basse

Si vous désirez plus de données historiques sur les conditions météo, s.v.p. visitez Données climatologiques en ligne.